Time;durP1;ratioP1;P1;durP2;ratioP2;P2;SDS_P1;SDS_P2;PMS_P1;PMS_P2;Temp;Humidity;BMP_temperature;BMP_pressure;BME280_temperature;BME280_humidity;BME280_pressure;Samples;Min_cycle;Max_cycle;Signal;HPM_P1;HPM_P2
2021/07/21 00:00:15;;;;;;;13.63;8.63;;;;;;;;;;5070177;28;20057;-68
2021/07/21 00:02:41;;;;;;;12.00;7.65;;;;;;;;;;5069821;28;20041;-68
2021/07/21 00:05:09;;;;;;;14.93;9.43;;;;;;;;;;5075277;28;20043;-68
2021/07/21 00:07:36;;;;;;;15.73;9.50;;;;;;;;;;5074673;28;20079;-68
2021/07/21 00:10:04;;;;;;;13.27;8.52;;;;;;;;;;5072784;28;20068;-68
2021/07/21 00:15:15;;;;;;;13.38;7.95;;;;;;;;;;5075297;28;20055;-68
2021/07/21 00:17:43;;;;;;;11.55;8.15;;;;;;;;;;5068820;28;20052;-68
2021/07/21 00:20:11;;;;;;;13.65;8.43;;;;;;;;;;5074650;28;20056;-68
2021/07/21 00:22:39;;;;;;;14.88;9.50;;;;;;;;;;5075244;28;20040;-68
2021/07/21 00:25:09;;;;;;;13.38;8.27;;;;;;;;;;5074150;28;20052;-68
2021/07/21 00:27:36;;;;;;;13.63;9.23;;;;;;;;;;5074732;28;20404;-68
2021/07/21 00:30:04;;;;;;;14.82;9.13;;;;;;;;;;5074295;28;20059;-68
2021/07/21 00:32:31;;;;;;;12.52;8.10;;;;;;;;;;5074813;28;20056;-68
2021/07/21 00:34:57;;;;;;;11.68;7.82;;;;;;;;;;5075061;28;20493;-68
2021/07/21 00:37:24;;;;;;;14.10;9.05;;;;;;;;;;5074810;28;20056;-68
2021/07/21 00:39:50;;;;;;;14.38;8.32;;;;;;;;;;5075048;28;20055;-68
2021/07/21 00:42:18;;;;;;;13.05;8.43;;;;;;;;;;5075090;28;20048;-68
2021/07/21 00:44:45;;;;;;;13.13;8.57;;;;;;;;;;5074868;28;20052;-68
2021/07/21 00:47:11;;;;;;;12.43;8.32;;;;;;;;;;5074761;28;20522;-68
2021/07/21 00:49:38;;;;;;;12.30;8.20;;;;;;;;;;5074801;28;20174;-68
2021/07/21 00:52:05;;;;;;;13.73;8.35;;;;;;;;;;5074524;28;20064;-68
2021/07/21 00:54:32;;;;;;;15.18;8.45;;;;;;;;;;5074814;28;20040;-68
2021/07/21 00:56:59;;;;;;;12.63;8.15;;;;;;;;;;5074657;28;20382;-68
2021/07/21 00:59:28;;;;;;;14.25;8.70;;;;;;;;;;5074725;28;20048;-68
2021/07/21 01:01:55;;;;;;;13.10;8.27;;;;;;;;;;5074598;28;20052;-68
2021/07/21 01:04:21;;;;;;;12.18;7.53;;;;;;;;;;5074848;28;20366;-68
2021/07/21 01:06:49;;;;;;;13.65;8.68;;;;;;;;;;5074530;28;20036;-69
2021/07/21 01:09:15;;;;;;;12.27;8.43;;;;;;;;;;5073496;28;20048;-69
2021/07/21 01:11:44;;;;;;;14.98;8.27;;;;;;;;;;5074361;28;20052;-69
2021/07/21 01:14:17;;;;;;;15.25;8.73;;;;;;;;;;5074444;28;20052;-69
2021/07/21 01:16:49;;;;;;;13.80;8.10;;;;;;;;;;5074567;28;20524;-69
2021/07/21 01:19:21;;;;;;;11.40;7.22;;;;;;;;;;5074150;28;20056;-68
2021/07/21 01:22:14;;;;;;;12.95;8.30;;;;;;;;;;5073877;28;20496;-68
2021/07/21 01:25:02;;;;;;;12.70;7.47;;;;;;;;;;5074278;28;20061;-68
2021/07/21 01:27:32;;;;;;;13.32;8.40;;;;;;;;;;5073762;28;20063;-69
2021/07/21 01:30:05;;;;;;;14.18;9.00;;;;;;;;;;5074208;28;20052;-69
2021/07/21 01:32:32;;;;;;;13.45;7.90;;;;;;;;;;5073930;28;20056;-69
2021/07/21 01:35:05;;;;;;;12.82;7.63;;;;;;;;;;5074239;28;20052;-69
2021/07/21 01:37:32;;;;;;;13.70;8.45;;;;;;;;;;5074195;28;20049;-69
2021/07/21 01:40:01;;;;;;;12.93;7.63;;;;;;;;;;5073777;28;20055;-69
2021/07/21 01:42:28;;;;;;;12.98;8.02;;;;;;;;;;5073566;28;20048;-69
2021/07/21 01:44:57;;;;;;;13.02;8.93;;;;;;;;;;5073498;28;20044;-69
2021/07/21 01:47:24;;;;;;;12.95;7.57;;;;;;;;;;5073473;28;20470;-69
2021/07/21 01:49:52;;;;;;;13.38;7.78;;;;;;;;;;5073505;28;20059;-68
2021/07/21 01:52:25;;;;;;;12.32;7.70;;;;;;;;;;5072598;28;20055;-69
2021/07/21 01:54:52;;;;;;;14.35;7.85;;;;;;;;;;5073560;28;20531;-69
2021/07/21 01:57:19;;;;;;;12.82;7.80;;;;;;;;;;5073649;28;20458;-68
2021/07/21 01:59:46;;;;;;;14.02;8.50;;;;;;;;;;5073345;28;20389;-68
2021/07/21 02:02:14;;;;;;;12.63;7.72;;;;;;;;;;5073564;28;20051;-68
2021/07/21 02:04:41;;;;;;;15.85;9.07;;;;;;;;;;5073659;28;20433;-68
2021/07/21 02:07:09;;;;;;;14.40;9.82;;;;;;;;;;5072835;28;20040;-68
2021/07/21 02:09:37;;;;;;;13.07;7.70;;;;;;;;;;5073492;28;20452;-68
2021/07/21 02:12:04;;;;;;;13.23;8.02;;;;;;;;;;5073275;28;20049;-68
2021/07/21 02:14:30;;;;;;;14.00;8.25;;;;;;;;;;5073290;28;20055;-68
2021/07/21 02:16:57;;;;;;;14.73;7.60;;;;;;;;;;5073379;28;20068;-68
2021/07/21 02:19:28;;;;;;;12.63;7.40;;;;;;;;;;5073050;28;20060;-68
2021/07/21 02:21:56;;;;;;;14.07;8.30;;;;;;;;;;5072603;28;20044;-68
2021/07/21 02:24:23;;;;;;;11.95;8.00;;;;;;;;;;5072424;28;20132;-68
2021/07/21 02:26:50;;;;;;;12.30;8.32;;;;;;;;;;5073180;28;20048;-68
2021/07/21 02:29:16;;;;;;;12.90;8.68;;;;;;;;;;5072937;28;20409;-68
2021/07/21 02:31:50;;;;;;;12.82;8.05;;;;;;;;;;5073162;28;20056;-68
2021/07/21 02:34:16;;;;;;;12.68;8.07;;;;;;;;;;5072566;28;20064;-68
2021/07/21 02:36:44;;;;;;;15.18;8.15;;;;;;;;;;5072742;28;20056;-68
2021/07/21 02:39:10;;;;;;;14.48;8.18;;;;;;;;;;5072516;28;20048;-68
2021/07/21 02:41:42;;;;;;;13.25;7.75;;;;;;;;;;5072084;28;20481;-68
2021/07/21 02:44:08;;;;;;;13.07;8.73;;;;;;;;;;5072545;28;20114;-68
2021/07/21 02:46:35;;;;;;;12.35;8.13;;;;;;;;;;5072578;28;20079;-68
2021/07/21 02:49:01;;;;;;;13.63;8.00;;;;;;;;;;5072385;28;20072;-68
2021/07/21 02:51:33;;;;;;;13.50;7.53;;;;;;;;;;5072066;28;20465;-68
2021/07/21 02:54:07;;;;;;;12.68;7.80;;;;;;;;;;5072545;28;20045;-68
2021/07/21 02:56:38;;;;;;;12.27;7.55;;;;;;;;;;5072659;28;20470;-68
2021/07/21 02:59:07;;;;;;;12.55;7.65;;;;;;;;;;5072218;28;20439;-68
2021/07/21 03:01:37;;;;;;;14.63;9.07;;;;;;;;;;5071965;28;20079;-68
2021/07/21 03:04:04;;;;;;;13.00;7.63;;;;;;;;;;5071711;28;20466;-68
2021/07/21 03:06:31;;;;;;;12.95;8.23;;;;;;;;;;5072410;28;20044;-68
2021/07/21 03:08:58;;;;;;;11.88;7.72;;;;;;;;;;5071106;28;20052;-68
2021/07/21 03:11:26;;;;;;;11.68;6.65;;;;;;;;;;5070990;28;20071;-68
2021/07/21 03:13:54;;;;;;;12.35;7.75;;;;;;;;;;5071298;28;20553;-68
2021/07/21 03:16:23;;;;;;;16.75;7.57;;;;;;;;;;5072244;28;20044;-68
2021/07/21 03:18:51;;;;;;;14.13;7.80;;;;;;;;;;5072106;28;20048;-68
2021/07/21 03:21:19;;;;;;;13.45;8.13;;;;;;;;;;5071088;28;20049;-70
2021/07/21 03:23:46;;;;;;;12.50;7.55;;;;;;;;;;5071889;28;20056;-68
2021/07/21 03:26:12;;;;;;;12.90;8.73;;;;;;;;;;5071470;28;20059;-68
2021/07/21 03:28:40;;;;;;;11.90;7.85;;;;;;;;;;5071771;28;20052;-68
2021/07/21 03:31:07;;;;;;;14.13;7.38;;;;;;;;;;5051977;28;20401;-69
2021/07/21 03:33:34;;;;;;;12.13;7.43;;;;;;;;;;5052061;28;20053;-70
2021/07/21 03:36:02;;;;;;;14.63;8.63;;;;;;;;;;5051138;28;20048;-70
2021/07/21 03:38:29;;;;;;;11.75;7.63;;;;;;;;;;5052820;28;20053;-69
2021/07/21 03:40:56;;;;;;;13.00;8.07;;;;;;;;;;5071913;28;20059;-67
2021/07/21 03:43:23;;;;;;;15.15;7.18;;;;;;;;;;5070552;28;20371;-69
2021/07/21 03:45:52;;;;;;;14.07;7.53;;;;;;;;;;5071736;28;20052;-69
2021/07/21 03:48:18;;;;;;;11.95;7.22;;;;;;;;;;5071667;28;20048;-69
2021/07/21 03:50:46;;;;;;;13.05;7.30;;;;;;;;;;5071372;28;20071;-69
2021/07/21 03:53:13;;;;;;;14.05;8.32;;;;;;;;;;5071791;28;20052;-68
2021/07/21 03:55:40;;;;;;;13.10;7.45;;;;;;;;;;5071474;28;20052;-69
2021/07/21 03:58:08;;;;;;;11.77;7.72;;;;;;;;;;5071661;28;20064;-68
2021/07/21 04:00:37;;;;;;;14.57;8.52;;;;;;;;;;5071347;28;20052;-68
2021/07/21 04:03:05;;;;;;;10.77;7.43;;;;;;;;;;5070583;28;20464;-69
2021/07/21 04:05:32;;;;;;;14.02;7.70;;;;;;;;;;5070801;28;20053;-69
2021/07/21 04:07:59;;;;;;;13.95;8.38;;;;;;;;;;5071060;28;20094;-69
2021/07/21 04:10:28;;;;;;;14.40;9.55;;;;;;;;;;5070893;28;20051;-69
2021/07/21 04:12:55;;;;;;;14.23;8.20;;;;;;;;;;5070910;28;20056;-69
2021/07/21 04:15:24;;;;;;;12.82;7.82;;;;;;;;;;5068499;28;20041;-69
2021/07/21 04:17:52;;;;;;;13.82;8.38;;;;;;;;;;5070889;28;20045;-70
2021/07/21 04:20:21;;;;;;;15.50;8.45;;;;;;;;;;5070237;28;20060;-69
2021/07/21 04:22:49;;;;;;;12.50;7.78;;;;;;;;;;5068729;28;20056;-69
2021/07/21 04:25:16;;;;;;;11.68;7.25;;;;;;;;;;5070852;28;20764;-69
2021/07/21 04:27:44;;;;;;;12.13;7.68;;;;;;;;;;5070815;28;20041;-69
2021/07/21 04:30:11;;;;;;;11.93;7.38;;;;;;;;;;5070588;28;20053;-69
2021/07/21 04:32:38;;;;;;;12.18;7.03;;;;;;;;;;5071014;28;20044;-68
2021/07/21 04:35:06;;;;;;;12.18;7.55;;;;;;;;;;5070904;28;20052;-70
2021/07/21 04:37:34;;;;;;;14.68;8.93;;;;;;;;;;5069816;28;20044;-69
2021/07/21 04:40:01;;;;;;;13.23;7.28;;;;;;;;;;5067919;28;20044;-69
2021/07/21 04:42:28;;;;;;;11.90;7.20;;;;;;;;;;5070940;28;20040;-69
2021/07/21 04:44:55;;;;;;;11.93;7.65;;;;;;;;;;5069750;28;20056;-69
2021/07/21 04:47:22;;;;;;;13.05;7.70;;;;;;;;;;5071303;28;20076;-69
2021/07/21 04:49:50;;;;;;;12.18;7.60;;;;;;;;;;5074469;28;20044;-69
2021/07/21 04:52:18;;;;;;;14.07;7.78;;;;;;;;;;5074132;28;20064;-69
2021/07/21 04:54:46;;;;;;;13.00;8.38;;;;;;;;;;5074383;28;20056;-69
2021/07/21 04:57:12;;;;;;;12.57;8.13;;;;;;;;;;5074768;28;20066;-68
2021/07/21 04:59:39;;;;;;;13.32;8.20;;;;;;;;;;5075011;28;20059;-69
2021/07/21 05:02:05;;;;;;;11.52;7.43;;;;;;;;;;5074385;28;20048;-68
2021/07/21 05:04:34;;;;;;;12.32;7.72;;;;;;;;;;5074526;28;20486;-69
2021/07/21 05:07:00;;;;;;;9.98;7.35;;;;;;;;;;5074628;28;20071;-69
2021/07/21 05:09:27;;;;;;;13.10;7.93;;;;;;;;;;5074501;28;20052;-68
2021/07/21 05:11:54;;;;;;;10.25;7.80;;;;;;;;;;5074349;28;20055;-68
2021/07/21 05:14:21;;;;;;;13.27;8.43;;;;;;;;;;5074251;28;20049;-68
2021/07/21 05:16:47;;;;;;;13.57;8.18;;;;;;;;;;5074165;28;20059;-68
2021/07/21 05:19:14;;;;;;;14.30;8.73;;;;;;;;;;5074201;28;20444;-68
2021/07/21 05:21:40;;;;;;;13.48;8.23;;;;;;;;;;5070476;28;20048;-68
2021/07/21 05:24:07;;;;;;;14.35;8.93;;;;;;;;;;5068834;28;20067;-68
2021/07/21 05:26:33;;;;;;;14.10;7.65;;;;;;;;;;5073451;28;20048;-68
2021/07/21 05:29:02;;;;;;;11.85;8.35;;;;;;;;;;5072928;28;20055;-69
2021/07/21 05:31:29;;;;;;;14.63;8.32;;;;;;;;;;5073527;28;20175;-68
2021/07/21 05:33:55;;;;;;;13.77;9.48;;;;;;;;;;5073839;28;20044;-68
2021/07/21 05:36:22;;;;;;;16.80;9.68;;;;;;;;;;5073382;28;20063;-69
2021/07/21 05:38:48;;;;;;;14.63;8.50;;;;;;;;;;5065733;28;20040;-68
2021/07/21 05:41:16;;;;;;;14.95;9.25;;;;;;;;;;5068989;28;20412;-69
2021/07/21 05:43:42;;;;;;;14.63;9.18;;;;;;;;;;5073467;28;20047;-68
2021/07/21 05:46:10;;;;;;;14.57;9.52;;;;;;;;;;5073668;28;20433;-68
2021/07/21 05:48:36;;;;;;;16.42;9.68;;;;;;;;;;5072929;28;20052;-68
2021/07/21 05:51:03;;;;;;;18.20;10.05;;;;;;;;;;5073439;28;20060;-68
2021/07/21 05:53:29;;;;;;;18.17;9.27;;;;;;;;;;5073557;28;20056;-68
2021/07/21 05:55:56;;;;;;;18.38;10.98;;;;;;;;;;5073482;28;20504;-68
2021/07/21 05:58:22;;;;;;;16.88;9.93;;;;;;;;;;5071912;28;20049;-68
2021/07/21 06:00:49;;;;;;;18.25;11.00;;;;;;;;;;5069999;28;20083;-68
2021/07/21 06:03:20;;;;;;;15.13;9.65;;;;;;;;;;5072994;28;20057;-68
2021/07/21 06:05:46;;;;;;;20.00;10.80;;;;;;;;;;5073316;28;20083;-68
2021/07/21 06:08:13;;;;;;;15.73;9.80;;;;;;;;;;5073230;28;20366;-68
2021/07/21 06:10:40;;;;;;;19.95;10.65;;;;;;;;;;5073092;28;20072;-68
2021/07/21 06:13:07;;;;;;;17.40;11.15;;;;;;;;;;5073171;28;20166;-68
2021/07/21 06:15:34;;;;;;;17.63;10.43;;;;;;;;;;5073043;28;20048;-69
2021/07/21 06:18:01;;;;;;;16.95;10.80;;;;;;;;;;5073156;28;20075;-69
2021/07/21 06:20:29;;;;;;;16.98;10.80;;;;;;;;;;5066996;28;20056;-69
2021/07/21 06:22:56;;;;;;;15.68;9.45;;;;;;;;;;5058131;28;20049;-69
2021/07/21 06:25:23;;;;;;;18.33;10.65;;;;;;;;;;5062888;28;20488;-68
2021/07/21 06:27:50;;;;;;;26.60;11.73;;;;;;;;;;5072869;28;20053;-69
2021/07/21 06:30:17;;;;;;;20.35;11.38;;;;;;;;;;5068169;28;20052;-68
2021/07/21 06:32:44;;;;;;;14.68;9.70;;;;;;;;;;5072976;28;20143;-68
2021/07/21 06:35:12;;;;;;;17.90;10.85;;;;;;;;;;5070010;28;20530;-68
2021/07/21 06:37:41;;;;;;;17.45;10.90;;;;;;;;;;5060339;28;20040;-69
2021/07/21 06:40:08;;;;;;;13.35;9.70;;;;;;;;;;5061964;28;20049;-69
2021/07/21 06:42:34;;;;;;;17.63;10.68;;;;;;;;;;5052631;28;20049;-69
2021/07/21 06:45:01;;;;;;;17.52;10.90;;;;;;;;;;5066731;28;20060;-69
2021/07/21 06:47:27;;;;;;;17.75;10.68;;;;;;;;;;5072444;28;20052;-69
2021/07/21 06:49:54;;;;;;;14.45;9.75;;;;;;;;;;5072377;28;20056;-69
2021/07/21 06:52:22;;;;;;;18.83;10.27;;;;;;;;;;5072336;28;20053;-69
2021/07/21 06:54:50;;;;;;;21.92;10.88;;;;;;;;;;5072481;28;20101;-69
2021/07/21 06:57:17;;;;;;;18.15;10.48;;;;;;;;;;5072067;28;20128;-69
2021/07/21 06:59:43;;;;;;;16.33;10.73;;;;;;;;;;5072141;28;20047;-69
2021/07/21 07:02:10;;;;;;;16.48;10.18;;;;;;;;;;5069935;28;20400;-70
2021/07/21 07:04:37;;;;;;;15.88;10.27;;;;;;;;;;5068912;28;20060;-69
2021/07/21 07:07:04;;;;;;;16.13;10.43;;;;;;;;;;5055945;28;20051;-69
2021/07/21 07:09:30;;;;;;;17.05;10.77;;;;;;;;;;5072170;28;20053;-69
2021/07/21 07:11:58;;;;;;;17.73;11.45;;;;;;;;;;5071886;28;20056;-69
2021/07/21 07:14:25;;;;;;;16.88;11.48;;;;;;;;;;5072092;28;20049;-69
2021/07/21 07:16:51;;;;;;;15.30;10.88;;;;;;;;;;5071950;28;20044;-69
2021/07/21 07:19:18;;;;;;;16.20;10.05;;;;;;;;;;5070671;28;20044;-69
2021/07/21 07:21:44;;;;;;;15.85;10.38;;;;;;;;;;5071161;28;20048;-69
2021/07/21 07:24:11;;;;;;;13.95;10.07;;;;;;;;;;5071487;28;20052;-69
2021/07/21 07:26:37;;;;;;;17.13;10.57;;;;;;;;;;5071226;28;20049;-69
2021/07/21 07:29:06;;;;;;;16.13;10.43;;;;;;;;;;5071678;28;20123;-69
2021/07/21 07:31:32;;;;;;;17.58;10.98;;;;;;;;;;5071319;28;20048;-69
2021/07/21 07:33:59;;;;;;;16.60;10.13;;;;;;;;;;5071617;28;20045;-69
2021/07/21 07:36:25;;;;;;;15.10;9.65;;;;;;;;;;5071851;28;20501;-69
2021/07/21 07:38:52;;;;;;;18.60;10.45;;;;;;;;;;5071380;28;20040;-70
2021/07/21 07:41:20;;;;;;;15.90;10.32;;;;;;;;;;5071671;28;20051;-71
2021/07/21 07:43:47;;;;;;;24.25;11.93;;;;;;;;;;5071611;28;20056;-69
2021/07/21 07:46:15;;;;;;;15.90;10.38;;;;;;;;;;5071604;28;20140;-70
2021/07/21 07:48:41;;;;;;;16.42;9.95;;;;;;;;;;5071575;28;20052;-69
2021/07/21 07:51:08;;;;;;;14.30;9.23;;;;;;;;;;5071153;28;20064;-70
2021/07/21 07:53:34;;;;;;;13.88;9.32;;;;;;;;;;5071716;28;20052;-69
2021/07/21 07:56:01;;;;;;;14.43;9.90;;;;;;;;;;5071930;28;20048;-71
2021/07/21 07:58:27;;;;;;;12.45;8.55;;;;;;;;;;5071762;28;20052;-69
2021/07/21 08:00:54;;;;;;;18.02;10.02;;;;;;;;;;5071805;28;20052;-69
2021/07/21 08:03:22;;;;;;;14.93;8.82;;;;;;;;;;5071655;28;20049;-69
2021/07/21 08:05:53;;;;;;;11.70;8.68;;;;;;;;;;5070932;28;20416;-70
2021/07/21 08:08:20;;;;;;;13.07;9.57;;;;;;;;;;5071049;28;20041;-70
2021/07/21 08:10:46;;;;;;;15.32;8.80;;;;;;;;;;5071795;28;20049;-70
2021/07/21 08:13:13;;;;;;;13.10;8.57;;;;;;;;;;5071851;28;20633;-70
2021/07/21 08:15:39;;;;;;;14.63;9.30;;;;;;;;;;5071707;28;20052;-70
2021/07/21 08:18:06;;;;;;;15.20;8.95;;;;;;;;;;5071355;28;20461;-70
2021/07/21 08:20:34;;;;;;;14.35;9.45;;;;;;;;;;5067455;28;20044;-70
2021/07/21 08:23:00;;;;;;;12.98;8.90;;;;;;;;;;5073153;28;20408;-70
2021/07/21 08:25:27;;;;;;;15.48;8.77;;;;;;;;;;5063605;28;20048;-70
2021/07/21 08:27:54;;;;;;;11.18;7.80;;;;;;;;;;5075376;28;20055;-70
2021/07/21 08:30:21;;;;;;;14.85;8.35;;;;;;;;;;5058052;28;20095;-70
2021/07/21 08:32:49;;;;;;;11.95;8.10;;;;;;;;;;5068599;28;20050;-70
2021/07/21 08:35:15;;;;;;;13.70;8.20;;;;;;;;;;5074525;28;20060;-70
2021/07/21 08:37:43;;;;;;;11.98;8.38;;;;;;;;;;5072288;28;20047;-70
2021/07/21 08:40:11;;;;;;;14.77;8.48;;;;;;;;;;5070503;28;20055;-70
2021/07/21 08:42:38;;;;;;;12.00;7.43;;;;;;;;;;5069242;28;20131;-69
2021/07/21 08:45:06;;;;;;;11.73;8.30;;;;;;;;;;5066823;28;20053;-69
2021/07/21 08:47:32;;;;;;;10.80;8.23;;;;;;;;;;5068374;28;20060;-69
2021/07/21 08:49:59;;;;;;;14.30;9.10;;;;;;;;;;5068555;28;20048;-69
2021/07/21 08:52:27;;;;;;;10.30;7.55;;;;;;;;;;5063448;28;20489;-68
2021/07/21 08:54:58;;;;;;;11.15;8.02;;;;;;;;;;5066620;28;20495;-69
2021/07/21 08:57:28;;;;;;;11.40;8.48;;;;;;;;;;5065533;28;20057;-68
2021/07/21 08:59:55;;;;;;;11.30;7.68;;;;;;;;;;5068425;28;20044;-68
2021/07/21 09:02:22;;;;;;;9.32;7.30;;;;;;;;;;5070464;28;20048;-68
2021/07/21 09:04:48;;;;;;;12.10;7.95;;;;;;;;;;5069941;28;20059;-69
2021/07/21 09:07:15;;;;;;;13.10;8.00;;;;;;;;;;5070180;28;20497;-69
2021/07/21 09:09:41;;;;;;;12.55;7.95;;;;;;;;;;5065702;28;20047;-69
2021/07/21 09:12:10;;;;;;;10.63;7.47;;;;;;;;;;5072036;28;20052;-69
2021/07/21 09:14:39;;;;;;;11.68;8.93;;;;;;;;;;5073569;28;20052;-69
2021/07/21 09:17:08;;;;;;;9.85;8.07;;;;;;;;;;5073900;28;20078;-69
2021/07/21 09:19:35;;;;;;;10.57;8.23;;;;;;;;;;5073499;28;20044;-69
2021/07/21 09:22:18;;;;;;;10.40;8.15;;;;;;;;;;5074274;28;20044;-69
2021/07/21 09:24:45;;;;;;;9.93;7.95;;;;;;;;;;5074521;28;20048;-69
2021/07/21 09:27:13;;;;;;;10.15;7.57;;;;;;;;;;5073838;28;20053;-69
2021/07/21 09:29:41;;;;;;;11.00;7.60;;;;;;;;;;5074570;28;20125;-69
2021/07/21 09:32:08;;;;;;;12.27;8.43;;;;;;;;;;5074513;28;20056;-69
2021/07/21 09:34:35;;;;;;;10.73;7.88;;;;;;;;;;5072706;28;20048;-69
2021/07/21 09:37:03;;;;;;;8.95;7.32;;;;;;;;;;5073745;28;20094;-69
2021/07/21 09:39:34;;;;;;;10.73;8.30;;;;;;;;;;5073894;28;20117;-69
2021/07/21 09:42:01;;;;;;;13.77;8.93;;;;;;;;;;5074180;28;20048;-69
2021/07/21 09:44:37;;;;;;;10.55;8.63;;;;;;;;;;5074186;28;20048;-68
2021/07/21 09:47:12;;;;;;;11.85;7.57;;;;;;;;;;5073913;28;20052;-68
2021/07/21 09:49:38;;;;;;;;;;;;;;;;;;5074007;28;20041;-68
2021/07/21 09:52:20;;;;;;;10.50;8.93;;;;;;;;;;5074030;28;19920;-68
2021/07/21 09:55:07;;;;;;;12.40;7.78;;;;;;;;;;5054044;28;20060;-68
2021/07/21 09:57:35;;;;;;;11.75;8.35;;;;;;;;;;5064249;28;20095;-69
2021/07/21 10:00:17;;;;;;;12.40;9.00;;;;;;;;;;5073656;28;20362;-69
2021/07/21 10:02:43;;;;;;;9.77;8.23;;;;;;;;;;5073306;28;20049;-68
2021/07/21 10:05:10;;;;;;;10.20;8.00;;;;;;;;;;5073683;28;20418;-68
2021/07/21 10:07:49;;;;;;;10.95;8.60;;;;;;;;;;5073437;28;20397;-68
2021/07/21 10:10:18;;;;;;;10.68;8.13;;;;;;;;;;5072934;28;20524;-68
2021/07/21 10:12:45;;;;;;;10.05;8.30;;;;;;;;;;5065699;28;20048;-68
2021/07/21 10:15:20;;;;;;;11.02;8.80;;;;;;;;;;5072738;28;20469;-68
2021/07/21 10:18:04;;;;;;;10.45;8.15;;;;;;;;;;5073500;28;20044;-68
2021/07/21 10:20:30;;;;;;;9.88;7.25;;;;;;;;;;5072915;28;20048;-68
2021/07/21 10:22:57;;;;;;;10.82;7.65;;;;;;;;;;5073220;28;20136;-68
2021/07/21 10:25:24;;;;;;;11.52;8.07;;;;;;;;;;5073474;28;20052;-68
2021/07/21 10:27:51;;;;;;;10.95;8.18;;;;;;;;;;5073100;28;20393;-68
2021/07/21 10:30:19;;;;;;;11.38;8.18;;;;;;;;;;5070411;28;20056;-68
2021/07/21 10:32:45;;;;;;;11.48;7.78;;;;;;;;;;5073161;28;20053;-68
2021/07/21 10:35:13;;;;;;;10.02;7.55;;;;;;;;;;5070833;28;20599;-69
2021/07/21 10:37:39;;;;;;;10.07;7.90;;;;;;;;;;5071505;28;20060;-68
2021/07/21 10:40:07;;;;;;;13.68;7.70;;;;;;;;;;5072299;28;20040;-69
2021/07/21 10:42:34;;;;;;;10.77;8.02;;;;;;;;;;5072264;28;20132;-69
2021/07/21 10:45:14;;;;;;;9.82;8.18;;;;;;;;;;5071208;28;20045;-69
2021/07/21 10:47:46;;;;;;;10.77;8.32;;;;;;;;;;5071749;28;20059;-69
2021/07/21 10:50:40;;;;;;;11.07;7.72;;;;;;;;;;5073153;28;20041;-68
2021/07/21 10:53:35;;;;;;;9.82;8.13;;;;;;;;;;5072721;28;20048;-68
2021/07/21 10:59:16;;;;;;;11.77;8.90;;;;;;;;;;5072604;28;20075;-69
2021/07/21 11:01:45;;;;;;;12.90;8.63;;;;;;;;;;5072478;28;20135;-70
2021/07/21 11:04:12;;;;;;;9.80;8.45;;;;;;;;;;5072464;28;20056;-68
2021/07/21 11:06:40;;;;;;;11.20;8.30;;;;;;;;;;5072527;28;20087;-68
2021/07/21 11:09:26;;;;;;;10.95;8.38;;;;;;;;;;5072235;28;20485;-68
2021/07/21 11:11:57;;;;;;;11.60;8.65;;;;;;;;;;5067026;28;20048;-68
2021/07/21 11:14:26;;;;;;;11.15;9.10;;;;;;;;;;5072256;28;20074;-70
2021/07/21 11:16:53;;;;;;;11.82;8.93;;;;;;;;;;5073379;28;20479;-70
2021/07/21 11:19:38;;;;;;;11.13;9.73;;;;;;;;;;5072668;28;20049;-70
2021/07/21 11:22:07;;;;;;;10.80;8.90;;;;;;;;;;5063497;28;20049;-68
2021/07/21 11:25:01;;;;;;;10.02;8.30;;;;;;;;;;5073368;28;20119;-68
2021/07/21 11:27:46;;;;;;;10.60;8.60;;;;;;;;;;5075358;28;20102;-68
2021/07/21 11:30:33;;;;;;;11.15;9.07;;;;;;;;;;5073338;28;20059;-68
2021/07/21 11:32:59;;;;;;;12.30;9.18;;;;;;;;;;5072168;28;20539;-68
2021/07/21 11:35:41;;;;;;;10.57;8.98;;;;;;;;;;5072194;28;20048;-68
2021/07/21 11:38:21;;;;;;;13.73;10.07;;;;;;;;;;5072549;28;20056;-68
2021/07/21 11:40:48;;;;;;;12.07;8.88;;;;;;;;;;5073272;28;20489;-68
2021/07/21 11:43:31;;;;;;;11.73;8.82;;;;;;;;;;5068307;28;20048;-68
2021/07/21 11:46:04;;;;;;;11.20;9.02;;;;;;;;;;5060537;28;20067;-68
2021/07/21 11:48:32;;;;;;;11.43;9.25;;;;;;;;;;5074094;28;20048;-68
2021/07/21 11:51:00;;;;;;;11.20;9.10;;;;;;;;;;5071411;28;20132;-68
2021/07/21 11:53:27;;;;;;;12.25;9.75;;;;;;;;;;5071127;28;20045;-69
2021/07/21 11:55:54;;;;;;;13.98;9.82;;;;;;;;;;5072853;28;20052;-69
2021/07/21 11:58:20;;;;;;;13.40;9.65;;;;;;;;;;5071119;28;20484;-69
2021/07/21 12:00:48;;;;;;;10.73;9.25;;;;;;;;;;5052729;28;20068;-69
2021/07/21 12:03:14;;;;;;;12.63;9.38;;;;;;;;;;5057604;28;20767;-69
2021/07/21 12:05:53;;;;;;;9.82;8.43;;;;;;;;;;5073415;28;20075;-69
2021/07/21 12:08:21;;;;;;;14.95;9.38;;;;;;;;;;5072063;28;20052;-70
2021/07/21 12:10:47;;;;;;;11.10;9.48;;;;;;;;;;5070840;28;20041;-69
2021/07/21 12:13:15;;;;;;;10.43;8.70;;;;;;;;;;5069784;28;20186;-69
2021/07/21 12:15:41;;;;;;;10.88;9.15;;;;;;;;;;5063837;28;20040;-69
2021/07/21 12:18:09;;;;;;;14.40;9.25;;;;;;;;;;5067045;28;20067;-69
2021/07/21 12:20:35;;;;;;;11.38;9.00;;;;;;;;;;5071272;28;20049;-69
2021/07/21 12:23:02;;;;;;;11.48;9.15;;;;;;;;;;5072970;28;20044;-69
2021/07/21 12:25:31;;;;;;;11.85;9.55;;;;;;;;;;5065580;28;20049;-69
2021/07/21 12:27:58;;;;;;;11.35;8.73;;;;;;;;;;5068619;28;20051;-69
2021/07/21 12:30:26;;;;;;;10.75;8.77;;;;;;;;;;5073190;28;20052;-69
2021/07/21 12:32:53;;;;;;;11.60;9.38;;;;;;;;;;5073352;28;20580;-70
2021/07/21 12:35:25;;;;;;;10.88;8.70;;;;;;;;;;5073081;28;20052;-70
2021/07/21 12:37:53;;;;;;;10.13;8.30;;;;;;;;;;5073218;28;20051;-69
2021/07/21 12:40:21;;;;;;;12.30;8.73;;;;;;;;;;5073766;28;20056;-69
2021/07/21 12:42:51;;;;;;;11.32;8.93;;;;;;;;;;5073501;28;20051;-70
2021/07/21 12:45:19;;;;;;;12.45;8.63;;;;;;;;;;5074184;28;20054;-70
2021/07/21 12:47:47;;;;;;;9.90;8.88;;;;;;;;;;5071619;28;20040;-70
2021/07/21 12:50:15;;;;;;;10.75;8.77;;;;;;;;;;5071806;28;20048;-69
2021/07/21 12:52:43;;;;;;;10.65;8.40;;;;;;;;;;5061648;28;20485;-69
2021/07/21 12:55:11;;;;;;;12.07;9.57;;;;;;;;;;5067887;28;20063;-69
2021/07/21 12:57:40;;;;;;;11.70;8.40;;;;;;;;;;5067173;28;20049;-69
2021/07/21 13:00:12;;;;;;;10.52;8.88;;;;;;;;;;5066527;28;20136;-69
2021/07/21 13:02:39;;;;;;;9.65;8.43;;;;;;;;;;5071387;28;20052;-68
2021/07/21 13:05:34;;;;;;;11.68;8.55;;;;;;;;;;5071457;28;20067;-68
2021/07/21 13:08:03;;;;;;;10.18;8.43;;;;;;;;;;5060732;28;20481;-68
2021/07/21 13:10:30;;;;;;;10.38;8.93;;;;;;;;;;5075910;28;20052;-70
2021/07/21 13:12:58;;;;;;;11.27;8.68;;;;;;;;;;5075991;28;20067;-70
2021/07/21 13:15:27;;;;;;;10.07;9.05;;;;;;;;;;5076907;28;20071;-69
2021/07/21 13:18:07;;;;;;;11.02;8.70;;;;;;;;;;5076094;28;20548;-70
2021/07/21 13:20:38;;;;;;;14.00;9.60;;;;;;;;;;5076159;28;20051;-70
2021/07/21 13:23:15;;;;;;;12.70;9.32;;;;;;;;;;5075590;28;20063;-69
2021/07/21 13:25:42;;;;;;;10.82;8.52;;;;;;;;;;5075947;28;20048;-68
2021/07/21 13:28:33;;;;;;;12.35;8.35;;;;;;;;;;5075327;28;20056;-69
2021/07/21 13:31:14;;;;;;;11.40;8.98;;;;;;;;;;5055016;28;20044;-70
2021/07/21 13:33:40;;;;;;;10.57;9.13;;;;;;;;;;5074907;28;20045;-70
2021/07/21 13:36:09;;;;;;;11.75;9.25;;;;;;;;;;5074646;28;20048;-70
2021/07/21 13:38:35;;;;;;;12.43;8.60;;;;;;;;;;5075441;28;20139;-70
2021/07/21 13:41:04;;;;;;;10.57;8.80;;;;;;;;;;5076147;28;20396;-70
2021/07/21 13:43:31;;;;;;;10.65;8.45;;;;;;;;;;5077591;28;20496;-69
2021/07/21 13:45:58;;;;;;;10.40;9.15;;;;;;;;;;5077548;28;20054;-71
2021/07/21 13:48:31;;;;;;;14.20;8.73;;;;;;;;;;5078638;28;20056;-70
2021/07/21 13:51:13;;;;;;;9.18;8.13;;;;;;;;;;5078363;28;20089;-70
2021/07/21 13:53:40;;;;;;;10.60;8.70;;;;;;;;;;5064056;28;20056;-69
2021/07/21 13:56:09;;;;;;;13.25;9.38;;;;;;;;;;5079917;28;20044;-70
2021/07/21 13:58:36;;;;;;;10.73;9.05;;;;;;;;;;5077403;28;20143;-70
2021/07/21 14:01:05;;;;;;;11.95;9.43;;;;;;;;;;5076503;28;20497;-70
2021/07/21 14:03:34;;;;;;;10.27;8.70;;;;;;;;;;5074078;28;20146;-69
2021/07/21 14:06:00;;;;;;;9.95;8.48;;;;;;;;;;5072053;28;20044;-69
2021/07/21 14:08:27;;;;;;;11.82;9.10;;;;;;;;;;5071726;28;20434;-69
2021/07/21 14:10:54;;;;;;;10.55;9.00;;;;;;;;;;5072830;28;20401;-69
2021/07/21 14:13:20;;;;;;;12.20;9.13;;;;;;;;;;5068283;28;20079;-69
2021/07/21 14:15:46;;;;;;;15.55;9.55;;;;;;;;;;5069685;28;20139;-69
2021/07/21 14:18:13;;;;;;;10.30;9.20;;;;;;;;;;5076321;28;20056;-70
2021/07/21 14:20:41;;;;;;;12.52;8.50;;;;;;;;;;5075821;28;20052;-68
2021/07/21 14:23:07;;;;;;;9.60;8.60;;;;;;;;;;5077553;28;20052;-71
2021/07/21 14:25:34;;;;;;;10.23;8.30;;;;;;;;;;5077026;28;20044;-69
2021/07/21 14:28:00;;;;;;;10.70;8.68;;;;;;;;;;5080842;28;20041;-68
2021/07/21 14:30:27;;;;;;;11.05;8.93;;;;;;;;;;5080278;28;20044;-69
2021/07/21 14:32:53;;;;;;;9.75;8.13;;;;;;;;;;5063606;28;20044;-69
2021/07/21 14:35:20;;;;;;;11.05;8.32;;;;;;;;;;5074815;28;20377;-69
2021/07/21 14:37:48;;;;;;;10.15;9.15;;;;;;;;;;5077780;28;20040;-69
2021/07/21 14:40:15;;;;;;;9.60;8.25;;;;;;;;;;5079946;28;20531;-69
2021/07/21 14:42:41;;;;;;;9.80;8.70;;;;;;;;;;5074579;28;20048;-70